Archival Weather

Chicago O'Hare International

Chicago, Illinois (KORD)

Report from: Tuesday, December 6, 2022 1:23 AM CST
Current time: Saturday, February 4, 2023 11:13 PM CST

Current weather
Weather history
Weather forecast

Temperature3.9°C (39.0°F)
Wind chill1.1°C (34.0°F)
Dew point-0.6°C (30.9°F)
Winds 6 kts (3.1 m/s, 6.9 mph) East-Northeast (60°)
Visibility10 mi. (16.1 km)
Clouds Few clouds 1,800 ft. (549 m)
Scattered clouds 2,400 ft. (732 m)
Ceiling: Overcast 3,500 ft. (1,067 m)
Altimeter29.94 in.Hg (1014 mB)
Relative humidity72 %
Density altitude-1,277 ft. (-389 m)
Remarks Automated weather observing station with precipitation discriminator
Flight conditions Visual Meteorological Conditions
Raw dataKORD 060723Z 06006KT 10SM FEW018 SCT024 OVC035 04/M01 A2994 RMK AO2 T00391006
An unhandled exception has occurred. See browser dev tools for details. Reload 🗙